Onondaga, Michigan
Current Conditions -  °F | °C
As of 6:12 AM on Thursday 23 Oct 2014 (Local Time) from KTEW Reporting Station
Haze Haze  
Wind Chill: -2°   Ceiling: 200
Heat Index: -2°   Visibility: 3mi
Dew Point: -2°   Wind: 0mph
Humidity: 99%   Direction: NA
Pressure: 30.26"   Gusts: NA
Location:  42.44°N, 84.56°W
Report Text: KTEW 231012Z AUTO 00000KT 3SM BR OVC002 M02/M02 A3026 RMK AO2 T10211023
Loading
Personal Weather Stations






























Interactive Weather Map
Tropical Storm Tracking
New forecast layout! Learn more

10-Day Weather Forecast

Advertisements
Track Severe Weather on mobile